Homer City, Pennsylvania
Current Conditions -  °F | °C
As of 1:15 PM on Monday 22 Dec 2014 (Local Time) from KIDI Reporting Station
Overcast Overcast  
Wind Chill: 31°   Ceiling: 4100
Heat Index: 37°   Visibility: 9mi
Dew Point: 28°   Wind: 9mph
Humidity: 70%   Direction: 120°ESE
Pressure: 30.1"   Gusts: NA
Location:  40.54°N, 79.16°W
Report Text: KIDI 221815Z AUTO 12008KT 9SM OVC041 03/M02 A3010 RMK A01
Loading
Personal Weather Stations






























Interactive Weather Map New forecast layout! Learn more

10-Day Weather Forecast

Advertisements
Track Severe Weather on mobile